createdAt,value
2019-03-19T00:00:33.465Z,1.48
2019-03-19T00:01:37.660Z,1.51
2019-03-19T00:02:41.777Z,1.52
2019-03-19T00:03:45.905Z,1.51
2019-03-19T00:04:50.102Z,1.50
2019-03-19T00:05:54.185Z,1.52
2019-03-19T00:06:58.406Z,1.54
2019-03-19T00:08:02.616Z,1.55
2019-03-19T00:09:06.856Z,1.58
2019-03-19T00:10:10.957Z,1.59
2019-03-19T00:11:15.046Z,1.59
2019-03-19T00:12:19.289Z,1.58
2019-03-19T00:13:23.410Z,1.58
2019-03-19T00:14:27.545Z,1.60
2019-03-19T00:15:31.692Z,1.61
2019-03-19T00:16:35.836Z,1.63
2019-03-19T00:17:39.995Z,1.65
2019-03-19T00:18:44.171Z,1.66
2019-03-19T00:19:48.427Z,1.66
2019-03-19T00:20:52.585Z,1.68
2019-03-19T00:21:56.745Z,1.68
2019-03-19T00:23:00.899Z,1.67
2019-03-19T00:24:05.065Z,1.66
2019-03-19T00:25:09.272Z,1.66
2019-03-19T00:26:13.482Z,1.67
2019-03-19T00:27:17.491Z,1.67
2019-03-19T00:28:21.705Z,1.68
2019-03-19T00:29:25.851Z,1.70
2019-03-19T00:30:30.072Z,1.69
2019-03-19T00:31:34.116Z,1.71
2019-03-19T00:32:38.447Z,1.72
2019-03-19T00:33:42.632Z,1.71
2019-03-19T00:34:46.845Z,1.72
2019-03-19T00:35:50.956Z,1.71
2019-03-19T00:36:55.198Z,1.74
2019-03-19T00:37:59.410Z,1.75
2019-03-19T00:39:03.584Z,1.75
2019-03-19T00:40:07.716Z,1.75
2019-03-19T00:41:12.012Z,1.74
2019-03-19T00:42:16.101Z,1.75
2019-03-19T00:43:20.120Z,1.76
2019-03-19T00:44:24.368Z,1.76
2019-03-19T00:45:28.617Z,1.77
2019-03-19T00:46:32.772Z,1.74
2019-03-19T00:47:36.961Z,1.72
2019-03-19T00:48:41.051Z,1.73
2019-03-19T00:49:45.297Z,1.74
2019-03-19T00:50:49.460Z,1.74
2019-03-19T00:51:53.629Z,1.74
2019-03-19T00:52:57.792Z,1.76
2019-03-19T00:54:01.995Z,1.76
2019-03-19T00:55:06.119Z,1.74
2019-03-19T00:56:10.286Z,1.73
2019-03-19T00:57:14.520Z,1.71
2019-03-19T00:58:18.609Z,1.69
2019-03-19T00:59:22.856Z,1.68
2019-03-19T01:00:27.034Z,1.67
2019-03-19T01:01:31.166Z,1.68
2019-03-19T01:02:35.381Z,1.66
2019-03-19T01:03:39.560Z,1.66
2019-03-19T01:04:43.756Z,1.67
2019-03-19T01:05:47.949Z,1.67
2019-03-19T01:06:52.189Z,1.68
2019-03-19T01:07:56.244Z,1.66
2019-03-19T01:09:00.348Z,1.64
2019-03-19T01:10:04.673Z,1.64
2019-03-19T01:11:08.768Z,1.65
2019-03-19T01:12:13.036Z,1.64
2019-03-19T01:13:17.227Z,1.65
2019-03-19T01:14:21.358Z,1.65
2019-03-19T01:15:25.417Z,1.64
2019-03-19T01:16:29.714Z,1.66
2019-03-19T01:17:33.954Z,1.63
2019-03-19T01:18:38.125Z,1.65
2019-03-19T01:19:42.318Z,1.64
2019-03-19T01:20:46.447Z,1.65
2019-03-19T01:21:50.658Z,1.65
2019-03-19T01:22:54.889Z,1.65
2019-03-19T01:23:58.918Z,1.67
2019-03-19T01:25:03.117Z,1.66
2019-03-19T01:26:07.394Z,1.67
2019-03-19T01:27:11.540Z,1.66
2019-03-19T01:28:15.734Z,1.67
2019-03-19T01:29:19.974Z,1.68
2019-03-19T01:30:24.087Z,1.67
2019-03-19T01:31:28.237Z,1.67
2019-03-19T01:32:32.537Z,1.65
2019-03-19T01:33:36.607Z,1.65
2019-03-19T01:34:40.764Z,1.67
2019-03-19T01:35:45.023Z,1.64
2019-03-19T01:36:49.212Z,1.65
2019-03-19T01:37:53.320Z,1.66
2019-03-19T01:38:57.563Z,1.66
2019-03-19T01:40:01.700Z,1.67
2019-03-19T01:41:05.844Z,1.68
2019-03-19T01:42:10.097Z,1.71
2019-03-19T01:43:14.248Z,1.69
2019-03-19T01:44:18.288Z,1.69
2019-03-19T01:45:22.541Z,1.69
2019-03-19T01:46:26.716Z,1.70
2019-03-19T01:47:31.123Z,1.69
2019-03-19T01:48:35.175Z,1.69
2019-03-19T01:49:39.340Z,1.69
2019-03-19T01:50:43.449Z,1.70
2019-03-19T01:51:47.624Z,1.70
2019-03-19T01:52:51.912Z,1.68
2019-03-19T01:53:56.014Z,1.70
2019-03-19T01:55:00.125Z,1.70
2019-03-19T01:56:05.342Z,1.72
2019-03-19T01:57:08.465Z,1.70
2019-03-19T01:58:12.740Z,1.69
2019-03-19T01:59:16.916Z,1.68
2019-03-19T02:00:21.100Z,1.70
2019-03-19T02:01:25.295Z,1.72
2019-03-19T02:02:29.503Z,1.71
2019-03-19T02:03:33.752Z,1.71
2019-03-19T02:04:37.862Z,1.71
2019-03-19T02:05:42.002Z,1.71
2019-03-19T02:06:46.255Z,1.71
2019-03-19T02:07:50.433Z,1.72
2019-03-19T02:08:54.544Z,1.71
2019-03-19T02:09:58.660Z,1.70
2019-03-19T02:11:02.777Z,1.70
2019-03-19T02:12:07.028Z,1.68
2019-03-19T02:13:17.224Z,1.69
2019-03-19T02:14:20.025Z,1.71
2019-03-19T02:15:24.135Z,1.70
2019-03-19T02:16:28.327Z,1.70
2019-03-19T02:17:32.451Z,1.71
2019-03-19T02:18:36.624Z,1.69
2019-03-19T02:19:40.787Z,1.69
2019-03-19T02:20:44.815Z,1.67
2019-03-19T02:21:49.042Z,1.68
2019-03-19T02:22:53.270Z,1.66
2019-03-19T02:23:57.368Z,1.65
2019-03-19T02:25:01.554Z,1.65
2019-03-19T02:26:15.597Z,1.65
2019-03-19T02:27:09.871Z,1.64
2019-03-19T02:28:14.069Z,1.64
2019-03-19T02:29:18.199Z,1.64
2019-03-19T02:30:22.295Z,1.67
2019-03-19T02:31:26.539Z,1.67
2019-03-19T02:32:30.662Z,1.68
2019-03-19T02:33:34.946Z,1.67
2019-03-19T02:34:39.040Z,1.68
2019-03-19T02:35:43.212Z,1.68
2019-03-19T02:36:47.462Z,1.66
2019-03-19T02:37:51.648Z,1.67
2019-03-19T02:38:55.831Z,1.66
2019-03-19T02:40:00.297Z,1.67
2019-03-19T02:41:04.070Z,1.68
2019-03-19T02:42:08.382Z,1.67
2019-03-19T02:43:12.505Z,1.68
2019-03-19T02:44:16.639Z,1.69
2019-03-19T02:45:20.906Z,1.68
2019-03-19T02:46:25.095Z,1.67
2019-03-19T02:47:29.293Z,1.67
2019-03-19T02:48:33.424Z,1.68
2019-03-19T02:49:37.616Z,1.67
2019-03-19T02:50:41.752Z,1.68
2019-03-19T02:51:45.985Z,1.68
2019-03-19T02:52:50.177Z,1.66
2019-03-19T02:53:54.304Z,1.67
2019-03-19T02:54:58.541Z,1.67
2019-03-19T02:56:02.755Z,1.66
2019-03-19T02:57:06.941Z,1.63
2019-03-19T02:58:11.080Z,1.58
2019-03-19T02:59:15.214Z,1.57
2019-03-19T03:00:19.465Z,1.57
2019-03-19T03:01:23.666Z,1.56
2019-03-19T03:02:27.912Z,1.57
2019-03-19T03:03:31.868Z,1.57
2019-03-19T03:04:36.181Z,1.57
2019-03-19T03:05:40.327Z,1.56
2019-03-19T03:06:44.433Z,1.53
2019-03-19T03:07:48.624Z,1.51
2019-03-19T03:08:52.821Z,1.50
2019-03-19T03:09:57.014Z,1.47
2019-03-19T03:11:01.136Z,1.47
2019-03-19T03:12:05.288Z,1.43
2019-03-19T03:13:09.485Z,1.40
2019-03-19T03:14:13.662Z,1.36
2019-03-19T03:15:17.701Z,1.36
2019-03-19T03:16:22.017Z,1.35
2019-03-19T03:17:26.135Z,1.34
2019-03-19T03:18:30.302Z,1.35
2019-03-19T03:19:34.452Z,1.34
2019-03-19T03:20:38.666Z,1.33
2019-03-19T03:21:42.789Z,1.32
2019-03-19T03:22:46.846Z,1.31
2019-03-19T03:23:51.165Z,1.30
2019-03-19T03:24:55.348Z,1.28
2019-03-19T03:25:59.572Z,1.27
2019-03-19T03:27:03.697Z,1.27
2019-03-19T03:28:07.870Z,1.27
2019-03-19T03:29:11.967Z,1.26
2019-03-19T03:30:16.051Z,1.25
2019-03-19T03:31:20.258Z,1.23
2019-03-19T03:32:24.517Z,1.22
2019-03-19T03:33:28.571Z,1.20
2019-03-19T03:34:32.769Z,1.17
2019-03-19T03:35:36.951Z,1.12
2019-03-19T03:36:41.066Z,1.09
2019-03-19T03:37:45.276Z,1.06
2019-03-19T03:38:49.430Z,1.02
2019-03-19T03:39:53.622Z,0.99
2019-03-19T03:40:57.743Z,0.99
2019-03-19T03:42:01.922Z,0.99
2019-03-19T03:43:06.101Z,0.99
2019-03-19T03:44:10.263Z,1.00
2019-03-19T03:45:14.558Z,1.00
2019-03-19T03:46:18.538Z,1.01
2019-03-19T03:47:22.838Z,1.02
2019-03-19T03:48:26.942Z,1.01
2019-03-19T03:49:31.129Z,1.02
2019-03-19T03:50:35.376Z,1.02
2019-03-19T03:51:39.455Z,1.02
2019-03-19T03:52:43.621Z,1.03
2019-03-19T03:53:47.769Z,1.04
2019-03-19T03:54:51.927Z,1.04
2019-03-19T03:55:56.167Z,0.98
2019-03-19T03:57:02.428Z,0.98
2019-03-19T03:58:04.259Z,0.99
2019-03-19T03:59:08.553Z,0.99
2019-03-19T04:00:12.687Z,0.99
2019-03-19T04:01:16.893Z,0.99
2019-03-19T04:02:21.031Z,0.98
2019-03-19T04:03:25.196Z,0.98
2019-03-19T04:04:29.235Z,0.97
2019-03-19T04:05:33.383Z,0.93
2019-03-19T04:06:37.504Z,0.93
2019-03-19T04:07:41.811Z,0.92
2019-03-19T04:08:45.981Z,0.91
2019-03-19T04:09:50.084Z,0.90
2019-03-19T04:10:54.271Z,0.90
2019-03-19T04:11:58.400Z,0.89
2019-03-19T04:13:02.659Z,0.88
2019-03-19T04:14:06.835Z,0.88
2019-03-19T04:15:10.984Z,0.86
2019-03-19T04:16:15.224Z,0.84
2019-03-19T04:17:19.431Z,0.83
2019-03-19T04:18:23.427Z,0.79
2019-03-19T04:19:27.733Z,0.76
2019-03-19T04:20:31.821Z,0.75
2019-03-19T04:21:36.016Z,0.72
2019-03-19T04:22:40.167Z,0.72
2019-03-19T04:23:44.350Z,0.71
2019-03-19T04:24:48.489Z,0.66
2019-03-19T04:25:52.694Z,0.65
2019-03-19T04:26:56.880Z,0.58
2019-03-19T04:28:00.908Z,0.55
2019-03-19T04:29:05.233Z,0.48
2019-03-19T04:30:09.261Z,0.43
2019-03-19T04:31:13.484Z,0.41
2019-03-19T04:32:17.753Z,0.42
2019-03-19T04:33:21.882Z,0.44
2019-03-19T04:34:25.919Z,0.45
2019-03-19T04:35:30.012Z,0.47
2019-03-19T04:36:34.335Z,0.47
2019-03-19T04:37:38.509Z,0.46
2019-03-19T04:38:42.625Z,0.47
2019-03-19T04:39:46.850Z,0.47
2019-03-19T04:40:51.043Z,0.45
2019-03-19T04:41:55.055Z,0.44
2019-03-19T04:42:59.247Z,0.45
2019-03-19T04:44:03.526Z,0.42
2019-03-19T04:45:07.721Z,0.42
2019-03-19T04:46:11.852Z,0.42
2019-03-19T04:47:16.103Z,0.43
2019-03-19T04:48:20.142Z,0.43
2019-03-19T04:49:24.352Z,0.42
2019-03-19T04:50:28.454Z,0.40
2019-03-19T04:51:32.633Z,0.37
2019-03-19T04:52:36.801Z,0.35
2019-03-19T04:53:40.967Z,0.32
2019-03-19T04:54:43.757Z,0.31
2019-03-19T04:55:47.903Z,0.31
2019-03-19T04:56:52.173Z,0.28
2019-03-19T04:57:56.170Z,0.28
2019-03-19T04:59:00.300Z,0.29
2019-03-19T05:00:04.484Z,0.32
2019-03-19T05:01:08.670Z,0.33
2019-03-19T05:02:12.695Z,0.32
2019-03-19T05:03:16.895Z,0.34
2019-03-19T05:04:21.143Z,0.35
2019-03-19T05:05:25.211Z,0.30
2019-03-19T05:06:29.397Z,0.30
2019-03-19T05:07:33.656Z,0.31
2019-03-19T05:08:37.675Z,0.32
2019-03-19T05:09:41.778Z,0.29
2019-03-19T05:10:45.994Z,0.29
2019-03-19T05:11:50.236Z,0.28
2019-03-19T05:12:54.347Z,0.29
2019-03-19T05:13:58.490Z,0.28
2019-03-19T05:15:02.639Z,0.26
2019-03-19T05:16:06.853Z,0.27
2019-03-19T05:17:10.977Z,0.29
2019-03-19T05:18:15.215Z,0.29
2019-03-19T05:19:19.229Z,0.30
2019-03-19T05:20:23.521Z,0.30
2019-03-19T05:21:27.643Z,0.30
2019-03-19T05:22:31.883Z,0.33
2019-03-19T05:23:36.002Z,0.34
2019-03-19T05:24:40.134Z,0.35
2019-03-19T05:25:44.304Z,0.37
2019-03-19T05:26:48.429Z,0.38
2019-03-19T05:27:52.601Z,0.39
2019-03-19T05:28:56.857Z,0.39
2019-03-19T05:30:00.967Z,0.39
2019-03-19T05:31:05.109Z,0.39
2019-03-19T05:32:09.345Z,0.40
2019-03-19T05:33:13.543Z,0.43
2019-03-19T05:34:17.691Z,0.45
2019-03-19T05:35:21.915Z,0.46
2019-03-19T05:36:26.028Z,0.48
2019-03-19T05:37:30.264Z,0.48
2019-03-19T05:38:34.475Z,0.50
2019-03-19T05:39:38.650Z,0.52
2019-03-19T05:40:42.738Z,0.54
2019-03-19T05:41:46.786Z,0.55
2019-03-19T05:42:50.940Z,0.58
2019-03-19T05:43:55.121Z,0.60
2019-03-19T05:44:59.356Z,0.61
2019-03-19T05:46:03.364Z,0.64
2019-03-19T05:47:07.518Z,0.67
2019-03-19T05:48:11.800Z,0.71
2019-03-19T05:49:15.920Z,0.72
2019-03-19T05:50:20.151Z,0.73
2019-03-19T05:51:24.267Z,0.75
2019-03-19T05:52:28.441Z,0.78
2019-03-19T05:53:32.495Z,0.80
2019-03-19T05:54:36.694Z,0.79
2019-03-19T05:55:40.861Z,0.79
2019-03-19T05:56:44.993Z,0.78
2019-03-19T05:57:50.481Z,0.80
2019-03-19T05:58:53.495Z,0.83
2019-03-19T05:59:57.674Z,0.84
2019-03-19T06:01:01.884Z,0.84
2019-03-19T06:02:05.974Z,0.83
2019-03-19T06:03:10.225Z,0.82
2019-03-19T06:04:14.458Z,0.81
2019-03-19T06:05:20.983Z,0.83
2019-03-19T06:06:22.859Z,0.88
2019-03-19T06:07:26.940Z,0.93
2019-03-19T06:08:31.131Z,0.96
2019-03-19T06:09:35.312Z,0.98
2019-03-19T06:10:39.362Z,1.00
2019-03-19T06:11:43.492Z,1.04
2019-03-19T06:12:47.677Z,1.04
2019-03-19T06:13:51.868Z,1.07
2019-03-19T06:14:56.102Z,1.10
2019-03-19T06:16:00.218Z,1.11
2019-03-19T06:17:04.467Z,1.11
2019-03-19T06:18:08.475Z,1.16
2019-03-19T06:19:12.625Z,1.20
2019-03-19T06:20:16.818Z,1.20
2019-03-19T06:21:20.977Z,1.21
2019-03-19T06:22:25.128Z,1.22
2019-03-19T06:23:29.401Z,1.23
2019-03-19T06:24:33.506Z,1.25
2019-03-19T06:25:37.572Z,1.25
2019-03-19T06:26:41.841Z,1.26
2019-03-19T06:27:45.975Z,1.28
2019-03-19T06:28:50.156Z,1.32
2019-03-19T06:29:54.310Z,1.33
2019-03-19T06:30:58.584Z,1.33
2019-03-19T06:32:02.594Z,1.41
2019-03-19T06:33:06.802Z,1.40
2019-03-19T06:34:10.962Z,1.44
2019-03-19T06:35:15.157Z,1.43
2019-03-19T06:36:19.223Z,1.49
2019-03-19T06:37:23.358Z,1.56
2019-03-19T06:38:27.577Z,1.61
2019-03-19T06:39:31.733Z,1.68
2019-03-19T06:40:36.039Z,1.73
2019-03-19T06:41:40.053Z,1.77
2019-03-19T06:42:44.353Z,1.82
2019-03-19T06:43:48.402Z,1.80
2019-03-19T06:44:52.713Z,1.81
2019-03-19T06:45:56.832Z,1.71
2019-03-19T06:47:00.987Z,1.69
2019-03-19T06:48:05.255Z,1.68
2019-03-19T06:49:09.461Z,1.68
2019-03-19T06:50:13.546Z,1.60
2019-03-19T06:51:17.673Z,1.61
2019-03-19T06:52:21.811Z,1.64
2019-03-19T06:53:26.058Z,1.67
2019-03-19T06:54:30.230Z,1.67
2019-03-19T06:55:34.496Z,1.71
2019-03-19T06:56:38.712Z,1.75
2019-03-19T06:57:42.812Z,1.77
2019-03-19T06:58:46.988Z,1.80
2019-03-19T06:59:51.144Z,1.74
2019-03-19T07:00:55.366Z,1.70
2019-03-19T07:01:59.588Z,1.75
2019-03-19T07:03:03.685Z,1.77
2019-03-19T07:04:07.980Z,1.73
2019-03-19T07:05:12.084Z,1.74
2019-03-19T07:06:16.246Z,1.75
2019-03-19T07:07:20.488Z,1.78
2019-03-19T07:08:24.658Z,1.85
2019-03-19T07:09:28.833Z,1.87
2019-03-19T07:10:33.173Z,1.90
2019-03-19T07:11:37.333Z,1.92
2019-03-19T07:12:41.424Z,1.94
2019-03-19T07:13:45.685Z,1.97
2019-03-19T07:14:49.835Z,1.96
2019-03-19T07:15:54.298Z,1.94
2019-03-19T07:16:58.278Z,1.98
2019-03-19T07:18:02.426Z,2.01
2019-03-19T07:19:06.619Z,2.05
2019-03-19T07:20:10.863Z,2.02
2019-03-19T07:21:15.121Z,2.06
2019-03-19T07:22:19.336Z,2.06
2019-03-19T07:23:23.418Z,2.13
2019-03-19T07:24:27.580Z,2.14
2019-03-19T07:25:31.755Z,2.15
2019-03-19T07:26:35.954Z,2.07
2019-03-19T07:27:40.089Z,2.14
2019-03-19T07:28:44.268Z,2.15
2019-03-19T07:29:48.410Z,2.13
2019-03-19T07:30:55.579Z,2.17
2019-03-19T07:31:58.840Z,2.13
2019-03-19T07:33:03.066Z,2.14
2019-03-19T07:34:07.287Z,2.08
2019-03-19T07:35:11.422Z,2.06
2019-03-19T07:36:15.720Z,2.13
2019-03-19T07:37:19.954Z,2.14
2019-03-19T07:38:24.167Z,2.19
2019-03-19T07:39:28.306Z,2.22
2019-03-19T07:40:32.550Z,2.24
2019-03-19T07:41:36.791Z,2.27
2019-03-19T07:42:41.027Z,2.31
2019-03-19T07:43:45.247Z,2.33
2019-03-19T07:44:49.401Z,2.21
2019-03-19T07:45:53.674Z,2.17
2019-03-19T07:46:57.845Z,2.23
2019-03-19T07:48:02.025Z,2.25
2019-03-19T07:49:06.305Z,2.15
2019-03-19T07:50:10.507Z,2.17
2019-03-19T07:51:14.776Z,2.10
2019-03-19T07:52:19.009Z,2.07
2019-03-19T07:53:23.146Z,2.12
2019-03-19T07:54:27.292Z,2.15
2019-03-19T07:55:31.558Z,2.16
2019-03-19T07:56:35.920Z,2.16
2019-03-19T07:57:40.051Z,2.21
2019-03-19T07:58:45.399Z,2.27
2019-03-19T07:59:48.479Z,2.30
2019-03-19T08:00:52.609Z,2.28
2019-03-19T08:01:56.889Z,2.34
2019-03-19T08:03:01.186Z,2.34
2019-03-19T08:04:05.360Z,2.35
2019-03-19T08:05:09.580Z,2.33
2019-03-19T08:06:13.771Z,2.36
2019-03-19T08:07:18.124Z,2.38
2019-03-19T08:08:22.283Z,2.40
2019-03-19T08:09:26.545Z,2.40
2019-03-19T08:10:30.767Z,2.43
2019-03-19T08:11:34.987Z,2.42
2019-03-19T08:12:39.214Z,2.45
2019-03-19T08:13:43.388Z,2.48
2019-03-19T08:14:47.620Z,2.51
2019-03-19T08:15:51.834Z,2.50
2019-03-19T08:16:55.978Z,2.55
2019-03-19T08:18:00.269Z,2.58
2019-03-19T08:19:04.348Z,2.57
2019-03-19T08:20:08.659Z,2.62
2019-03-19T08:21:12.957Z,2.63
2019-03-19T08:22:17.099Z,2.69
2019-03-19T08:23:21.373Z,2.75
2019-03-19T08:24:25.597Z,2.76
2019-03-19T08:25:29.849Z,2.76
2019-03-19T08:26:34.094Z,2.80
2019-03-19T08:27:38.331Z,2.79
2019-03-19T08:28:42.583Z,2.83
2019-03-19T08:29:46.779Z,2.85
2019-03-19T08:30:50.991Z,2.87
2019-03-19T08:31:55.257Z,2.77
2019-03-19T08:32:59.371Z,2.86
2019-03-19T08:34:03.630Z,2.91
2019-03-19T08:35:07.752Z,2.97
2019-03-19T08:36:12.072Z,2.88
2019-03-19T08:37:16.306Z,2.89
2019-03-19T08:38:20.550Z,2.86
2019-03-19T08:39:24.765Z,2.91
2019-03-19T08:40:28.886Z,2.92
2019-03-19T08:41:33.196Z,2.89
2019-03-19T08:42:37.426Z,2.88
2019-03-19T08:43:41.531Z,2.95
2019-03-19T08:44:45.871Z,2.93
2019-03-19T08:45:50.018Z,2.90
2019-03-19T08:46:54.201Z,2.97
2019-03-19T08:47:58.384Z,2.86
2019-03-19T08:49:02.684Z,2.96
2019-03-19T08:50:06.808Z,3.02
2019-03-19T08:51:11.014Z,3.07
2019-03-19T08:52:15.318Z,3.11
2019-03-19T08:53:19.532Z,3.11
2019-03-19T08:54:23.673Z,3.20
2019-03-19T08:55:27.972Z,3.24
2019-03-19T08:56:32.225Z,3.38
2019-03-19T08:57:36.396Z,3.42
2019-03-19T08:58:40.674Z,3.40
2019-03-19T08:59:44.924Z,3.54
2019-03-19T09:00:49.089Z,3.63
2019-03-19T09:01:53.356Z,3.55
2019-03-19T09:02:57.609Z,3.46
2019-03-19T09:04:01.879Z,3.45
2019-03-19T09:05:06.013Z,3.33
2019-03-19T09:06:10.284Z,3.33
2019-03-19T09:07:14.495Z,3.23
2019-03-19T09:08:18.794Z,3.14
2019-03-19T09:09:22.935Z,3.15
2019-03-19T09:10:27.149Z,3.09
2019-03-19T09:11:31.427Z,3.17
2019-03-19T09:12:35.687Z,3.08
2019-03-19T09:13:39.881Z,3.03
2019-03-19T09:14:44.124Z,3.00
2019-03-19T09:15:48.366Z,3.05
2019-03-19T09:16:52.588Z,3.19
2019-03-19T09:17:56.731Z,3.15
2019-03-19T09:19:01.039Z,3.12
2019-03-19T09:20:05.304Z,3.26
2019-03-19T09:21:09.567Z,3.16
2019-03-19T09:22:13.828Z,3.12
2019-03-19T09:23:18.079Z,3.19
2019-03-19T09:24:22.345Z,3.13
2019-03-19T09:25:26.568Z,3.30
2019-03-19T09:26:30.899Z,3.46
2019-03-19T09:27:35.110Z,3.45
2019-03-19T09:28:39.467Z,3.58
2019-03-19T09:29:43.665Z,3.51
2019-03-19T09:30:47.819Z,3.58
2019-03-19T09:31:52.118Z,3.74
2019-03-19T09:32:56.452Z,3.75
2019-03-19T09:34:00.690Z,3.77
2019-03-19T09:35:04.948Z,3.48
2019-03-19T09:36:09.160Z,3.50
2019-03-19T09:37:13.489Z,3.38
2019-03-19T09:38:17.693Z,3.36
2019-03-19T09:39:21.956Z,3.47
2019-03-19T09:40:26.197Z,3.49
2019-03-19T09:41:30.448Z,3.39
2019-03-19T09:42:34.573Z,3.34
2019-03-19T09:43:38.913Z,3.33
2019-03-19T09:44:43.151Z,3.37
2019-03-19T09:45:47.404Z,3.04
2019-03-19T09:46:51.653Z,3.14
2019-03-19T09:47:55.822Z,2.93
2019-03-19T09:49:00.098Z,2.96
2019-03-19T09:50:04.249Z,3.05
2019-03-19T09:51:08.562Z,2.96
2019-03-19T09:52:12.813Z,3.12
2019-03-19T09:53:18.746Z,3.27
2019-03-19T09:54:21.176Z,2.96
2019-03-19T09:55:25.515Z,3.12
2019-03-19T09:56:29.762Z,2.97
2019-03-19T09:57:33.896Z,2.98
2019-03-19T09:58:38.130Z,2.82
2019-03-19T09:59:44.523Z,3.04
2019-03-19T10:00:46.612Z,3.05
2019-03-19T10:01:50.754Z,3.07
2019-03-19T10:02:55.123Z,3.08
2019-03-19T10:03:59.260Z,3.12
2019-03-19T10:05:03.576Z,3.32
2019-03-19T10:06:13.950Z,3.30
2019-03-19T10:07:11.988Z,3.33
2019-03-19T10:08:16.318Z,3.33
2019-03-19T10:09:20.560Z,3.51
2019-03-19T10:10:24.951Z,3.47
2019-03-19T10:11:29.080Z,3.42
2019-03-19T10:12:33.223Z,3.43
2019-03-19T10:13:37.523Z,3.12
2019-03-19T10:14:41.678Z,3.07
2019-03-19T10:15:45.979Z,3.24
2019-03-19T10:16:50.207Z,3.29
2019-03-19T10:17:54.325Z,3.43
2019-03-19T10:18:58.630Z,3.36
2019-03-19T10:20:02.781Z,3.36
2019-03-19T10:21:06.961Z,3.42
2019-03-19T10:22:11.178Z,3.42
2019-03-19T10:23:15.506Z,3.29
2019-03-19T10:24:19.798Z,3.50
2019-03-19T10:25:24.058Z,3.62
2019-03-19T10:26:28.224Z,3.67
2019-03-19T10:27:32.522Z,3.75
2019-03-19T10:28:36.854Z,3.73
2019-03-19T10:29:41.061Z,3.95
2019-03-19T10:30:45.285Z,4.02
2019-03-19T10:31:49.602Z,3.96
2019-03-19T10:32:53.999Z,3.57
2019-03-19T10:33:58.150Z,3.60
2019-03-19T10:35:02.430Z,3.69
2019-03-19T10:36:06.699Z,3.64
2019-03-19T10:37:10.922Z,3.61
2019-03-19T10:38:15.288Z,3.59
2019-03-19T10:39:19.471Z,3.33
2019-03-19T10:40:23.728Z,3.33
2019-03-19T10:41:27.841Z,3.45
2019-03-19T10:42:32.183Z,3.41
2019-03-19T10:43:36.477Z,3.56
2019-03-19T10:44:40.733Z,3.40
2019-03-19T10:45:44.899Z,3.26
2019-03-19T10:46:49.124Z,3.46
2019-03-19T10:47:53.412Z,3.45
2019-03-19T10:48:57.723Z,3.61
2019-03-19T10:50:01.953Z,3.24
2019-03-19T10:51:06.200Z,3.58
2019-03-19T10:52:10.440Z,3.64
2019-03-19T10:53:14.737Z,3.62
2019-03-19T10:54:19.022Z,3.72
2019-03-19T10:55:23.247Z,3.72
2019-03-19T10:56:27.496Z,3.72
2019-03-19T10:57:31.671Z,3.28
2019-03-19T10:58:35.915Z,3.41
2019-03-19T10:59:48.742Z,3.54
2019-03-19T11:00:44.523Z,3.65
2019-03-19T11:01:51.347Z,3.77
2019-03-19T11:02:53.161Z,3.77
2019-03-19T11:03:57.399Z,3.46
2019-03-19T11:05:01.704Z,3.49
2019-03-19T11:06:05.969Z,3.49
2019-03-19T11:07:10.359Z,3.65
2019-03-19T11:08:14.573Z,3.63
2019-03-19T11:09:18.807Z,3.60
2019-03-19T11:10:23.133Z,3.58
2019-03-19T11:11:27.355Z,3.54
2019-03-19T11:12:31.512Z,3.53
2019-03-19T11:13:35.679Z,3.67
2019-03-19T11:14:40.022Z,3.68
2019-03-19T11:15:44.285Z,3.58
2019-03-19T11:16:48.563Z,3.59
2019-03-19T11:17:52.946Z,3.60
2019-03-19T11:18:57.157Z,3.70
2019-03-19T11:20:01.341Z,3.66
2019-03-19T11:21:05.638Z,3.74
2019-03-19T11:22:09.859Z,3.71
2019-03-19T11:23:14.111Z,3.63
2019-03-19T11:24:18.432Z,3.71
2019-03-19T11:25:22.653Z,3.61
2019-03-19T11:26:26.929Z,3.49
2019-03-19T11:27:31.206Z,3.60
2019-03-19T11:28:35.469Z,3.50
2019-03-19T11:29:39.791Z,3.58
2019-03-19T11:30:44.010Z,3.69
2019-03-19T11:31:48.266Z,3.64
2019-03-19T11:32:52.409Z,3.67
2019-03-19T11:33:56.738Z,3.71
2019-03-19T11:35:00.996Z,3.70
2019-03-19T11:36:05.266Z,3.31
2019-03-19T11:37:09.408Z,3.40
2019-03-19T11:38:13.712Z,3.32
2019-03-19T11:39:17.959Z,3.42
2019-03-19T11:40:22.241Z,3.43
2019-03-19T11:41:26.516Z,3.45
2019-03-19T11:42:30.829Z,3.46
2019-03-19T11:43:35.070Z,3.56
2019-03-19T11:44:39.340Z,3.68
2019-03-19T11:45:43.609Z,3.63
2019-03-19T11:46:47.867Z,3.78
2019-03-19T11:47:52.111Z,3.89
2019-03-19T11:48:56.270Z,3.94
2019-03-19T11:50:00.590Z,3.83
2019-03-19T11:51:04.844Z,3.93
2019-03-19T11:52:09.024Z,3.67
2019-03-19T11:53:13.343Z,3.54
2019-03-19T11:54:17.506Z,3.67
2019-03-19T11:55:21.832Z,3.68
2019-03-19T11:56:26.203Z,3.80
2019-03-19T11:57:30.503Z,3.88
2019-03-19T11:58:34.764Z,3.99
2019-03-19T11:59:39.074Z,4.05
2019-03-19T12:00:43.362Z,3.92
2019-03-19T12:01:47.597Z,4.00
2019-03-19T12:02:51.878Z,3.76
2019-03-19T12:03:56.110Z,3.59
2019-03-19T12:05:00.390Z,3.81
2019-03-19T12:06:04.652Z,3.77
2019-03-19T12:07:08.800Z,3.90
2019-03-19T12:08:13.132Z,3.95
2019-03-19T12:09:17.404Z,3.74
2019-03-19T12:10:21.795Z,3.82
2019-03-19T12:11:26.039Z,4.05
2019-03-19T12:12:30.205Z,3.79
2019-03-19T12:13:34.622Z,3.78
2019-03-19T12:14:38.891Z,3.84
2019-03-19T12:15:43.178Z,3.86
2019-03-19T12:16:47.470Z,4.05
2019-03-19T12:17:51.737Z,4.11
2019-03-19T12:18:55.926Z,4.15
2019-03-19T12:20:00.232Z,3.95
2019-03-19T12:21:04.631Z,3.82
2019-03-19T12:22:08.867Z,3.73
2019-03-19T12:23:13.011Z,3.46
2019-03-19T12:24:17.307Z,3.69
2019-03-19T12:25:21.587Z,3.45
2019-03-19T12:26:25.856Z,3.49
2019-03-19T12:27:30.100Z,3.49
2019-03-19T12:28:39.716Z,3.63
2019-03-19T12:29:38.685Z,3.55
2019-03-19T12:30:42.849Z,3.99
2019-03-19T12:31:47.156Z,4.04
2019-03-19T12:32:51.478Z,4.43
2019-03-19T12:33:55.846Z,4.04
2019-03-19T12:35:01.666Z,4.18
2019-03-19T12:36:04.488Z,4.22
2019-03-19T12:37:08.822Z,4.32
2019-03-19T12:38:13.026Z,4.05
2019-03-19T12:39:17.323Z,3.85
2019-03-19T12:40:21.598Z,3.87
2019-03-19T12:41:25.911Z,3.76
2019-03-19T12:42:30.074Z,3.40
2019-03-19T12:43:34.427Z,3.63
2019-03-19T12:44:38.715Z,3.78
2019-03-19T12:45:43.011Z,3.77
2019-03-19T12:46:47.332Z,3.63
2019-03-19T12:47:51.574Z,3.68
2019-03-19T12:48:55.867Z,3.93
2019-03-19T12:50:00.355Z,4.17
2019-03-19T12:51:04.440Z,4.37
2019-03-19T12:52:08.685Z,4.25
2019-03-19T12:53:12.961Z,4.60
2019-03-19T12:54:17.237Z,4.52
2019-03-19T12:55:21.524Z,4.59
2019-03-19T12:56:25.833Z,4.46
2019-03-19T12:57:30.121Z,4.61
2019-03-19T12:58:34.318Z,4.68
2019-03-19T12:59:38.657Z,5.13
2019-03-19T13:00:42.875Z,5.41
2019-03-19T13:01:47.249Z,4.88
2019-03-19T13:02:51.554Z,4.97
2019-03-19T13:03:55.473Z,4.55
2019-03-19T13:04:59.783Z,4.36
2019-03-19T13:06:04.080Z,4.60
2019-03-19T13:07:08.391Z,4.76
2019-03-19T13:08:12.618Z,4.79
2019-03-19T13:09:16.967Z,4.58
2019-03-19T13:10:21.275Z,5.12
2019-03-19T13:11:25.527Z,5.72
2019-03-19T13:12:29.853Z,5.16
2019-03-19T13:13:34.148Z,4.83
2019-03-19T13:14:38.452Z,5.09
2019-03-19T13:15:42.653Z,4.70
2019-03-19T13:16:47.119Z,4.42
2019-03-19T13:17:51.299Z,4.17
2019-03-19T13:18:55.574Z,4.11
2019-03-19T13:20:00.004Z,3.93
2019-03-19T13:21:04.237Z,3.93
2019-03-19T13:22:08.623Z,3.88
2019-03-19T13:23:12.832Z,3.56
2019-03-19T13:24:17.493Z,3.71
2019-03-19T13:25:21.443Z,3.94
2019-03-19T13:26:25.657Z,3.88
2019-03-19T13:27:30.043Z,3.99
2019-03-19T13:28:34.314Z,4.21
2019-03-19T13:29:38.701Z,4.56
2019-03-19T13:30:45.266Z,4.80
2019-03-19T13:31:50.168Z,4.09
2019-03-19T13:32:53.578Z,4.06
2019-03-19T13:33:57.837Z,4.07
2019-03-19T13:35:02.030Z,3.94
2019-03-19T13:36:06.339Z,3.78
2019-03-19T13:37:10.639Z,3.77
2019-03-19T13:38:14.911Z,3.87
2019-03-19T13:39:19.298Z,3.61
2019-03-19T13:40:23.533Z,3.49
2019-03-19T13:41:27.827Z,3.68
2019-03-19T13:42:32.096Z,3.69
2019-03-19T13:43:36.293Z,3.69
2019-03-19T13:44:40.579Z,3.59
2019-03-19T13:45:44.861Z,3.53
2019-03-19T13:46:49.148Z,3.51
2019-03-19T13:47:53.494Z,3.65
2019-03-19T13:48:57.816Z,3.56
2019-03-19T13:50:02.025Z,3.52
2019-03-19T13:51:06.272Z,3.61
2019-03-19T13:52:10.541Z,3.70
2019-03-19T13:53:14.850Z,3.67
2019-03-19T13:54:19.109Z,3.68
2019-03-19T13:55:23.351Z,3.52
2019-03-19T13:56:27.596Z,3.64
2019-03-19T13:57:31.782Z,3.62
2019-03-19T13:58:36.105Z,3.66
2019-03-19T13:59:40.442Z,3.85
2019-03-19T14:00:55.090Z,3.97
2019-03-19T14:01:48.953Z,4.17
2019-03-19T14:02:53.241Z,4.07
2019-03-19T14:03:57.546Z,3.92
2019-03-19T14:05:01.865Z,3.87
2019-03-19T14:06:06.112Z,3.75
2019-03-19T14:07:10.368Z,3.83
2019-03-19T14:08:14.676Z,3.78
2019-03-19T14:09:18.947Z,3.96
2019-03-19T14:10:23.158Z,3.88
2019-03-19T14:11:27.482Z,3.88
2019-03-19T14:12:31.780Z,3.84
2019-03-19T14:13:36.076Z,3.83
2019-03-19T14:14:40.326Z,3.88